Ana Sayfa
METAR-TAF:

METAR-TAF

Havaalanları :

Tennant Creek, Avustralya

Enlem: 19-38-04S, Boylam: 134-11-00E, yükseklik: 377 m

Güncel hava durumu gözlemi

Rapor saat 09:00 UTC de 26 dakika önce yapıldı.
Rüzgar doğudan 7 kt
Sıcaklık 19°C
Nem 40%
Basınç 1018 hPa
Görüş mesafesi 10 km veya daha fazla

METAR: YTNK 250900Z AUTO 10007KT 9999 // NCD 19/05 Q1018

Saat: 18:56 (09:26 UTC)

Tahmin

Rapor saat 06:12 UTC de 3 saat ve 14 dakika önce yapıldı.
Ayın 25'si saat 08 UTC'den ayın 25'si saat 20 UTC'ye kadar geçerli Tahmin
Rüzgar doğudan 8 kt
Görüş mesafesi 10 km veya daha fazla
1500 m altında bulut yok ve kümülonimbus yok

TAF: YTNK 250612Z 2508/2520 10008KT CAVOK

4.000'den fazla havaalanı için hava durumu gözlemleri ve tahminleri (METAR ve TAF raporları).

Kullanılabilir istasyonlar harita üzerinde sarı ve kırmızı noktalarla gösterilir.

İstasyonun adını görmek için fareyi noktanın üzerinde gezdirin.

Sonrasında hava gözlem ve tahminlerini görmek için tıklayın.

Haritayı değiştirmek için: yaklaştırmak için siyah artı işaretli yeşil düğmeye ve uzaklaştırmak için de eksi işaretli düğmeye hızla tıklayın; bitişik haritalar için yeşil okları kullanın.


METAR-TAF: